Gujranwala Weather



Gujranwala's Current Weather

Temprature 36o few clouds

few clouds

Rain: 0 %

Min Temprature36o
Max Temprature36o
Humidity26
Wind Speed4.12 m/h
Sun Rise05:10:58
Sun Set18:48:31
Current Time: 08-May-2021 16:04:53
Lat/Lon: 32.1617, 74.1883




Gujranwala's Geo Location



Gujranwala's Weather Forecast

Time Overall Temp Min Temp Max Temp Humidity Wind Speed Rain
08-May-2021 (Sat)
17:00:00 few clouds 36.000 36.000 36.560 26 2.13 m/h 0 %
20:00:00 few clouds 34.560 31.690 34.560 27 1.92 m/h 0 %
23:00:00 light rain 31.270 28.900 31.270 31 2.66 m/h 14 %
09-May-2021 (Sun)
02:00:00 scattered clouds 27.470 27.470 27.470 36 0.32 m/h 0 %
05:00:00 few clouds 25.860 25.860 25.860 40 2.9 m/h 0 %
08:00:00 clear sky 31.830 31.830 31.830 26 3.7 m/h 0 %
11:00:00 few clouds 37.680 37.680 37.680 18 2.43 m/h 0 %
14:00:00 broken clouds 38.910 38.910 38.910 15 2.7 m/h 0 %
17:00:00 light rain 30.320 30.320 30.320 32 3.72 m/h 24 %
20:00:00 light rain 25.450 25.450 25.450 53 4.6 m/h 78 %
23:00:00 light rain 26.260 26.260 26.260 49 2.44 m/h 12 %
10-May-2021 (Mon)
02:00:00 overcast clouds 25.540 25.540 25.540 49 1.55 m/h 0 %
05:00:00 light rain 24.910 24.910 24.910 50 1.83 m/h 17 %
08:00:00 light rain 28.970 28.970 28.970 37 3.4 m/h 36 %
11:00:00 overcast clouds 35.490 35.490 35.490 22 2.51 m/h 0 %
14:00:00 overcast clouds 38.970 38.970 38.970 16 1.69 m/h 0 %
17:00:00 overcast clouds 38.890 38.890 38.890 15 2.14 m/h 0 %
20:00:00 scattered clouds 33.650 33.650 33.650 21 2.76 m/h 0 %
23:00:00 few clouds 31.130 31.130 31.130 24 1.73 m/h 0 %
11-May-2021 (Tue)
02:00:00 light rain 28.580 28.580 28.580 30 1.76 m/h 13 %
05:00:00 clear sky 27.090 27.090 27.090 34 2.18 m/h 0 %
08:00:00 few clouds 32.610 32.610 32.610 23 4.22 m/h 0 %
11:00:00 clear sky 38.220 38.220 38.220 17 3.25 m/h 0 %
14:00:00 clear sky 41.300 41.300 41.300 13 3.2 m/h 0 %
17:00:00 clear sky 41.340 41.340 41.340 11 1.2 m/h 0 %
20:00:00 light rain 31.770 31.770 31.770 27 6.04 m/h 23 %
23:00:00 light rain 30.790 30.790 30.790 31 2.99 m/h 42 %
12-May-2021 (Wed)
02:00:00 light rain 27.780 27.780 27.780 37 4.27 m/h 21 %
05:00:00 overcast clouds 27.470 27.470 27.470 37 4.84 m/h 0 %
08:00:00 light rain 29.060 29.060 29.060 35 3.11 m/h 22 %
11:00:00 light rain 30.960 30.960 30.960 32 5.06 m/h 74 %
14:00:00 light rain 32.030 32.030 32.030 31 8.48 m/h 18 %
17:00:00 light rain 28.880 28.880 28.880 39 7.61 m/h 19 %
20:00:00 light rain 26.620 26.620 26.620 46 2.06 m/h 29 %
23:00:00 overcast clouds 25.350 25.350 25.350 51 3.27 m/h 0 %
13-May-2021 (Thu)
02:00:00 light rain 23.690 23.690 23.690 58 2.28 m/h 24 %
05:00:00 light rain 22.020 22.020 22.020 64 0.57 m/h 83 %
08:00:00 overcast clouds 26.580 26.580 26.580 46 3.43 m/h 0 %
11:00:00 broken clouds 32.140 32.140 32.140 30 3.89 m/h 0 %
14:00:00 few clouds 35.290 35.290 35.290 24 2.8 m/h 0 %

Famous Cities (60)